sensor_id;sensor_type;location;lat;lon;timestamp;pressure;altitude;pressure_sealevel;temperature;humidity
46007;BME280;31738;50.188;8.524;2023-12-20T00:02:13;98622.72;;;6.44;95.38
46007;BME280;31738;50.188;8.524;2023-12-20T00:04:38;98619.03;;;6.45;95.59
46007;BME280;31738;50.188;8.524;2023-12-20T00:07:04;98615.31;;;6.46;95.44
46007;BME280;31738;50.188;8.524;2023-12-20T00:09:29;98609.97;;;6.46;95.46
46007;BME280;31738;50.188;8.524;2023-12-20T00:11:54;98614.25;;;6.47;95.21
46007;BME280;31738;50.188;8.524;2023-12-20T00:14:20;98618.78;;;6.46;95.29
46007;BME280;31738;50.188;8.524;2023-12-20T00:16:45;98607.31;;;6.46;94.97
46007;BME280;31738;50.188;8.524;2023-12-20T00:19:11;98616.91;;;6.47;95.30
46007;BME280;31738;50.188;8.524;2023-12-20T00:21:36;98607.88;;;6.48;95.41
46007;BME280;31738;50.188;8.524;2023-12-20T00:24:02;98604.16;;;6.49;95.61
46007;BME280;31738;50.188;8.524;2023-12-20T00:26:27;98598.00;;;6.48;95.14
46007;BME280;31738;50.188;8.524;2023-12-20T00:28:53;98593.50;;;6.49;95.08
46007;BME280;31738;50.188;8.524;2023-12-20T00:31:19;98595.13;;;6.50;95.41
46007;BME280;31738;50.188;8.524;2023-12-20T00:33:44;98600.44;;;6.50;95.28
46007;BME280;31738;50.188;8.524;2023-12-20T00:36:11;98597.78;;;6.50;95.23
46007;BME280;31738;50.188;8.524;2023-12-20T00:38:36;98595.91;;;6.50;95.49
46007;BME280;31738;50.188;8.524;2023-12-20T00:41:02;98598.31;;;6.52;95.74
46007;BME280;31738;50.188;8.524;2023-12-20T00:43:27;98598.56;;;6.50;95.61
46007;BME280;31738;50.188;8.524;2023-12-20T00:45:53;98593.25;;;6.50;95.37
46007;BME280;31738;50.188;8.524;2023-12-20T00:48:18;98594.63;;;6.53;95.50
46007;BME280;31738;50.188;8.524;2023-12-20T00:50:44;98587.66;;;6.52;95.38
46007;BME280;31738;50.188;8.524;2023-12-20T00:53:09;98599.13;;;6.52;95.62
46007;BME280;31738;50.188;8.524;2023-12-20T00:55:35;98591.41;;;6.51;95.81
46007;BME280;31738;50.188;8.524;2023-12-20T00:58:00;98579.16;;;6.50;95.18
46007;BME280;31738;50.188;8.524;2023-12-20T01:00:26;98565.31;;;6.53;95.31
46007;BME280;31738;50.188;8.524;2023-12-20T01:02:51;98567.97;;;6.53;95.59
46007;BME280;31738;50.188;8.524;2023-12-20T01:05:18;98574.91;;;6.54;95.41
46007;BME280;31738;50.188;8.524;2023-12-20T01:07:43;98580.22;;;6.54;95.55
46007;BME280;31738;50.188;8.524;2023-12-20T01:10:09;98574.09;;;6.53;95.72
46007;BME280;31738;50.188;8.524;2023-12-20T01:12:36;98570.66;;;6.53;95.38
46007;BME280;31738;50.188;8.524;2023-12-20T01:15:01;98567.16;;;6.52;95.11
46007;BME280;31738;50.188;8.524;2023-12-20T01:17:27;98569.59;;;6.54;95.63
46007;BME280;31738;50.188;8.524;2023-12-20T01:19:52;98565.31;;;6.53;95.75
46007;BME280;31738;50.188;8.524;2023-12-20T01:22:18;98573.06;;;6.54;95.42
46007;BME280;31738;50.188;8.524;2023-12-20T01:24:44;98558.09;;;6.53;95.82
46007;BME280;31738;50.188;8.524;2023-12-20T01:27:10;98550.38;;;6.52;95.42
46007;BME280;31738;50.188;8.524;2023-12-20T01:29:35;98558.91;;;6.54;95.73
46007;BME280;31738;50.188;8.524;2023-12-20T01:32:00;98558.91;;;6.54;95.80
46007;BME280;31738;50.188;8.524;2023-12-20T01:34:26;98558.91;;;6.54;95.75
46007;BME280;31738;50.188;8.524;2023-12-20T01:36:52;98564.81;;;6.56;95.41
46007;BME280;31738;50.188;8.524;2023-12-20T01:39:17;98555.19;;;6.55;95.91
46007;BME280;31738;50.188;8.524;2023-12-20T01:41:43;98565.06;;;6.54;95.26
46007;BME280;31738;50.188;8.524;2023-12-20T01:44:08;98565.84;;;6.55;95.47
46007;BME280;31738;50.188;8.524;2023-12-20T01:46:34;98571.19;;;6.55;95.44
46007;BME280;31738;50.188;8.524;2023-12-20T01:49:00;98587.97;;;6.55;95.90
46007;BME280;31738;50.188;8.524;2023-12-20T01:51:26;98586.66;;;6.58;95.28
46007;BME280;31738;50.188;8.524;2023-12-20T01:53:54;98590.97;;;6.59;95.40
46007;BME280;31738;50.188;8.524;2023-12-20T01:56:20;98598.13;;;6.58;95.65
46007;BME280;31738;50.188;8.524;2023-12-20T01:58:47;98592.56;;;6.60;95.35
46007;BME280;31738;50.188;8.524;2023-12-20T02:01:13;98602.66;;;6.58;95.68
46007;BME280;31738;50.188;8.524;2023-12-20T02:03:42;98576.56;;;6.60;95.41
46007;BME280;31738;50.188;8.524;2023-12-20T02:06:08;98559.75;;;6.59;95.83
46007;BME280;31738;50.188;8.524;2023-12-20T02:08:35;98579.22;;;6.60;95.72
46007;BME280;31738;50.188;8.524;2023-12-20T02:11:01;98577.13;;;6.62;95.24
46007;BME280;31738;50.188;8.524;2023-12-20T02:13:27;98578.97;;;6.61;95.77
46007;BME280;31738;50.188;8.524;2023-12-20T02:15:52;98576.56;;;6.60;95.47
46007;BME280;31738;50.188;8.524;2023-12-20T02:18:18;98571.25;;;6.60;95.60
46007;BME280;31738;50.188;8.524;2023-12-20T02:20:44;98573.09;;;6.59;95.64
46007;BME280;31738;50.188;8.524;2023-12-20T02:23:09;98568.56;;;6.60;95.52
46007;BME280;31738;50.188;8.524;2023-12-20T02:25:35;98564.84;;;6.61;95.38
46007;BME280;31738;50.188;8.524;2023-12-20T02:28:01;98559.50;;;6.61;95.60
46007;BME280;31738;50.188;8.524;2023-12-20T02:30:27;98552.59;;;6.60;95.85
46007;BME280;31738;50.188;8.524;2023-12-20T02:32:53;98569.13;;;6.62;95.57
46007;BME280;31738;50.188;8.524;2023-12-20T02:35:19;98570.16;;;6.61;95.50
46007;BME280;31738;50.188;8.524;2023-12-20T02:37:44;98563.25;;;6.60;95.69
46007;BME280;31738;50.188;8.524;2023-12-20T02:40:10;98559.75;;;6.59;95.63
46007;BME280;31738;50.188;8.524;2023-12-20T02:42:36;98572.31;;;6.59;95.76
46007;BME280;31738;50.188;8.524;2023-12-20T02:45:01;98570.66;;;6.58;96.01
46007;BME280;31738;50.188;8.524;2023-12-20T02:47:27;98578.66;;;6.58;95.78
46007;BME280;31738;50.188;8.524;2023-12-20T02:49:52;98576.56;;;6.60;95.92
46007;BME280;31738;50.188;8.524;2023-12-20T02:52:18;98583.50;;;6.61;95.77
46007;BME280;31738;50.188;8.524;2023-12-20T02:54:44;98579.78;;;6.62;95.74
46007;BME280;31738;50.188;8.524;2023-12-20T02:57:09;98575.50;;;6.61;95.54
46007;BME280;31738;50.188;8.524;2023-12-20T02:59:35;98579.78;;;6.62;95.36
46007;BME280;31738;50.188;8.524;2023-12-20T03:02:00;98587.78;;;6.62;95.36
46007;BME280;31738;50.188;8.524;2023-12-20T03:04:26;98604.81;;;6.61;95.75
46007;BME280;31738;50.188;8.524;2023-12-20T03:06:51;98595.78;;;6.62;95.86
46007;BME280;31738;50.188;8.524;2023-12-20T03:09:16;98605.38;;;6.63;95.38
46007;BME280;31738;50.188;8.524;2023-12-20T03:11:42;98594.72;;;6.63;95.71
46007;BME280;31738;50.188;8.524;2023-12-20T03:14:07;98583.25;;;6.62;95.39
46007;BME280;31738;50.188;8.524;2023-12-20T03:16:33;98592.63;;;6.65;95.45
46007;BME280;31738;50.188;8.524;2023-12-20T03:18:58;98589.38;;;6.63;95.72
46007;BME280;31738;50.188;8.524;2023-12-20T03:21:24;98597.63;;;6.61;95.43
46007;BME280;31738;50.188;8.524;2023-12-20T03:23:50;98606.69;;;6.60;95.88
46007;BME280;31738;50.188;8.524;2023-12-20T03:26:16;98604.28;;;6.59;95.71
46007;BME280;31738;50.188;8.524;2023-12-20T03:28:41;98600.78;;;6.58;95.34
46007;BME280;31738;50.188;8.524;2023-12-20T03:31:07;98598.94;;;6.59;95.71
46007;BME280;31738;50.188;8.524;2023-12-20T03:33:32;98608.78;;;6.58;95.41
46007;BME280;31738;50.188;8.524;2023-12-20T03:35:58;98614.13;;;6.58;95.43
46007;BME280;31738;50.188;8.524;2023-12-20T03:38:23;98609.59;;;6.59;95.56
46007;BME280;31738;50.188;8.524;2023-12-20T03:40:50;98617.84;;;6.57;95.42
46007;BME280;31738;50.188;8.524;2023-12-20T03:43:15;98616.72;;;6.53;95.36
46007;BME280;31738;50.188;8.524;2023-12-20T03:45:42;98619.63;;;6.52;95.71
46007;BME280;31738;50.188;8.524;2023-12-20T03:48:07;98634.59;;;6.53;95.81
46007;BME280;31738;50.188;8.524;2023-12-20T03:50:34;98623.94;;;6.53;95.52
46007;BME280;31738;50.188;8.524;2023-12-20T03:52:59;98636.13;;;6.49;95.77
46007;BME280;31738;50.188;8.524;2023-12-20T03:55:25;98629.19;;;6.48;96.14
46007;BME280;31738;50.188;8.524;2023-12-20T03:57:50;98630.53;;;6.50;95.96
46007;BME280;31738;50.188;8.524;2023-12-20T04:00:16;98630.78;;;6.49;95.44
46007;BME280;31738;50.188;8.524;2023-12-20T04:02:41;98630.22;;;6.47;95.54
46007;BME280;31738;50.188;8.524;2023-12-20T04:05:08;98624.91;;;6.47;95.63
46007;BME280;31738;50.188;8.524;2023-12-20T04:07:35;98638.22;;;6.47;95.92
46007;BME280;31738;50.188;8.524;2023-12-20T04:10:00;98628.38;;;6.47;95.68
46007;BME280;31738;50.188;8.524;2023-12-20T04:12:28;98624.91;;;6.47;95.84
46007;BME280;31738;50.188;8.524;2023-12-20T04:14:53;98623.31;;;6.46;95.86
46007;BME280;31738;50.188;8.524;2023-12-20T04:17:19;98629.44;;;6.46;95.83
46007;BME280;31738;50.188;8.524;2023-12-20T04:19:45;98627.56;;;6.47;95.75
46007;BME280;31738;50.188;8.524;2023-12-20T04:22:10;98630.78;;;6.49;95.82
46007;BME280;31738;50.188;8.524;2023-12-20T04:24:36;98645.19;;;6.48;95.81
46007;BME280;31738;50.188;8.524;2023-12-20T04:27:02;98646.78;;;6.49;95.80
46007;BME280;31738;50.188;8.524;2023-12-20T04:29:27;98634.84;;;6.51;96.22
46007;BME280;31738;50.188;8.524;2023-12-20T04:31:53;98629.78;;;6.55;95.92
46007;BME280;31738;50.188;8.524;2023-12-20T04:34:18;98627.63;;;6.52;96.01
46007;BME280;31738;50.188;8.524;2023-12-20T04:36:44;98639.34;;;6.51;95.98
46007;BME280;31738;50.188;8.524;2023-12-20T04:39:11;98635.13;;;6.55;96.33
46007;BME280;31738;50.188;8.524;2023-12-20T04:41:37;98642.06;;;6.56;95.89
46007;BME280;31738;50.188;8.524;2023-12-20T04:44:02;98646.09;;;6.58;96.28
46007;BME280;31738;50.188;8.524;2023-12-20T04:46:28;98657.59;;;6.64;96.28
46007;BME280;31738;50.188;8.524;2023-12-20T04:48:53;98661.41;;;6.68;96.30
46007;BME280;31738;50.188;8.524;2023-12-20T04:51:18;98670.00;;;6.75;95.89
46007;BME280;31738;50.188;8.524;2023-12-20T04:53:44;98648.91;;;6.73;95.83
46007;BME280;31738;50.188;8.524;2023-12-20T04:56:09;98676.88;;;6.71;95.52
46007;BME280;31738;50.188;8.524;2023-12-20T04:58:35;98664.31;;;6.66;96.10
46007;BME280;31738;50.188;8.524;2023-12-20T05:01:00;98673.84;;;6.62;95.94
46007;BME280;31738;50.188;8.524;2023-12-20T05:03:26;98671.94;;;6.58;96.33
46007;BME280;31738;50.188;8.524;2023-12-20T05:05:51;98679.38;;;6.56;95.97
46007;BME280;31738;50.188;8.524;2023-12-20T05:08:17;98667.34;;;6.53;96.04
46007;BME280;31738;50.188;8.524;2023-12-20T05:10:42;98673.91;;;6.46;96.04
46007;BME280;31738;50.188;8.524;2023-12-20T05:13:08;98679.16;;;6.41;95.70
46007;BME280;31738;50.188;8.524;2023-12-20T05:15:33;98683.66;;;6.35;96.05
46007;BME280;31738;50.188;8.524;2023-12-20T05:17:59;98683.31;;;6.32;96.38
46007;BME280;31738;50.188;8.524;2023-12-20T05:20:24;98691.28;;;6.27;96.17
46007;BME280;31738;50.188;8.524;2023-12-20T05:22:49;98698.19;;;6.28;96.27
46007;BME280;31738;50.188;8.524;2023-12-20T05:25:15;98685.94;;;6.27;96.33
46007;BME280;31738;50.188;8.524;2023-12-20T05:27:41;98683.53;;;6.25;96.03
46007;BME280;31738;50.188;8.524;2023-12-20T05:30:07;98688.28;;;6.23;96.24
46007;BME280;31738;50.188;8.524;2023-12-20T05:32:32;98695.47;;;6.23;96.37
46007;BME280;31738;50.188;8.524;2023-12-20T05:34:58;98688.78;;;6.20;96.08
46007;BME280;31738;50.188;8.524;2023-12-20T05:37:23;98680.47;;;6.17;95.85
46007;BME280;31738;50.188;8.524;2023-12-20T05:39:49;98682.03;;;6.13;96.06
46007;BME280;31738;50.188;8.524;2023-12-20T05:42:14;98685.19;;;6.10;96.14
46007;BME280;31738;50.188;8.524;2023-12-20T05:44:40;98681.94;;;6.08;95.89
46007;BME280;31738;50.188;8.524;2023-12-20T05:47:05;98678.41;;;6.02;96.07
46007;BME280;31738;50.188;8.524;2023-12-20T05:49:31;98696.16;;;5.97;95.82
46007;BME280;31738;50.188;8.524;2023-12-20T05:51:57;98679.84;;;5.93;95.96
46007;BME280;31738;50.188;8.524;2023-12-20T05:54:22;98687.78;;;5.88;96.11
46007;BME280;31738;50.188;8.524;2023-12-20T05:56:48;98688.28;;;5.85;95.96
46007;BME280;31738;50.188;8.524;2023-12-20T05:59:13;98689.56;;;5.83;96.16
46007;BME280;31738;50.188;8.524;2023-12-20T06:01:39;98698.34;;;5.83;96.15
46007;BME280;31738;50.188;8.524;2023-12-20T06:04:05;98692.22;;;5.83;96.26
46007;BME280;31738;50.188;8.524;2023-12-20T06:06:30;98690.00;;;5.80;95.82
46007;BME280;31738;50.188;8.524;2023-12-20T06:08:56;98714.44;;;5.77;95.83
46007;BME280;31738;50.188;8.524;2023-12-20T06:11:21;98716.81;;;5.73;95.38
46007;BME280;31738;50.188;8.524;2023-12-20T06:13:47;98730.84;;;5.69;95.68
46007;BME280;31738;50.188;8.524;2023-12-20T06:16:14;98729.69;;;5.65;95.94
46007;BME280;31738;50.188;8.524;2023-12-20T06:18:40;98717.94;;;5.61;95.99
46007;BME280;31738;50.188;8.524;2023-12-20T06:21:06;98720.34;;;5.62;96.20
46007;BME280;31738;50.188;8.524;2023-12-20T06:23:33;98721.72;;;5.65;96.22
46007;BME280;31738;50.188;8.524;2023-12-20T06:25:58;98719.06;;;5.65;95.72
46007;BME280;31738;50.188;8.524;2023-12-20T06:28:24;98715.81;;;5.63;95.90
46007;BME280;31738;50.188;8.524;2023-12-20T06:30:49;98725.91;;;5.61;95.46
46007;BME280;31738;50.188;8.524;2023-12-20T06:33:15;98718.41;;;5.58;95.43
46007;BME280;31738;50.188;8.524;2023-12-20T06:35:40;98710.44;;;5.58;95.75
46007;BME280;31738;50.188;8.524;2023-12-20T06:38:06;98715.19;;;5.56;95.33
46007;BME280;31738;50.188;8.524;2023-12-20T06:40:31;98725.25;;;5.54;95.56
46007;BME280;31738;50.188;8.524;2023-12-20T06:42:57;98724.22;;;5.55;95.74
46007;BME280;31738;50.188;8.524;2023-12-20T06:45:23;98725.25;;;5.54;95.57
46007;BME280;31738;50.188;8.524;2023-12-20T06:47:48;98726.31;;;5.53;95.29
46007;BME280;31738;50.188;8.524;2023-12-20T06:50:14;98733.22;;;5.54;95.65
46007;BME280;31738;50.188;8.524;2023-12-20T06:52:39;98734.88;;;5.55;95.95
46007;BME280;31738;50.188;8.524;2023-12-20T06:55:05;98744.69;;;5.54;95.37
46007;BME280;31738;50.188;8.524;2023-12-20T06:57:30;98742.03;;;5.54;95.34
46007;BME280;31738;50.188;8.524;2023-12-20T06:59:56;98734.88;;;5.55;95.57
46007;BME280;31738;50.188;8.524;2023-12-20T07:02:23;98742.84;;;5.55;95.26
46007;BME280;31738;50.188;8.524;2023-12-20T07:04:48;98744.44;;;5.56;95.07
46007;BME280;31738;50.188;8.524;2023-12-20T07:07:15;98754.03;;;5.57;95.31
46007;BME280;31738;50.188;8.524;2023-12-20T07:09:40;98764.66;;;5.57;95.04
46007;BME280;31738;50.188;8.524;2023-12-20T07:12:08;98767.09;;;5.58;95.16
46007;BME280;31738;50.188;8.524;2023-12-20T07:14:34;98763.63;;;5.58;95.25
46007;BME280;31738;50.188;8.524;2023-12-20T07:17:00;98755.66;;;5.58;94.83
46007;BME280;31738;50.188;8.524;2023-12-20T07:19:25;98770.56;;;5.59;95.17
46007;BME280;31738;50.188;8.524;2023-12-20T07:21:51;98781.22;;;5.59;95.23
46007;BME280;31738;50.188;8.524;2023-12-20T07:24:16;98777.44;;;5.55;94.82
46007;BME280;31738;50.188;8.524;2023-12-20T07:26:42;98779.50;;;5.53;94.85
46007;BME280;31738;50.188;8.524;2023-12-20T07:29:08;98770.16;;;5.50;94.77
46007;BME280;31738;50.188;8.524;2023-12-20T07:31:33;98772.00;;;5.50;95.01
46007;BME280;31738;50.188;8.524;2023-12-20T07:34:00;98769.34;;;5.50;95.17
46007;BME280;31738;50.188;8.524;2023-12-20T07:36:25;98767.75;;;5.49;95.06
46007;BME280;31738;50.188;8.524;2023-12-20T07:38:51;98764.25;;;5.48;95.17
46007;BME280;31738;50.188;8.524;2023-12-20T07:41:16;98772.25;;;5.48;95.15
46007;BME280;31738;50.188;8.524;2023-12-20T07:43:42;98770.41;;;5.49;95.17
46007;BME280;31738;50.188;8.524;2023-12-20T07:46:08;98784.00;;;5.52;95.05
46007;BME280;31738;50.188;8.524;2023-12-20T07:48:37;98786.44;;;5.54;94.84
46007;BME280;31738;50.188;8.524;2023-12-20T07:51:06;98775.00;;;5.53;94.66
46007;BME280;31738;50.188;8.524;2023-12-20T07:53:33;98781.09;;;5.54;94.70
46007;BME280;31738;50.188;8.524;2023-12-20T07:55:59;98781.09;;;5.54;94.70
46007;BME280;31738;50.188;8.524;2023-12-20T07:58:25;98778.44;;;5.54;94.90
46007;BME280;31738;50.188;8.524;2023-12-20T08:00:50;98779.50;;;5.53;94.69
46007;BME280;31738;50.188;8.524;2023-12-20T08:03:16;98784.00;;;5.52;94.86
46007;BME280;31738;50.188;8.524;2023-12-20T08:05:41;98784.81;;;5.53;94.77
46007;BME280;31738;50.188;8.524;2023-12-20T08:08:07;98785.66;;;5.53;94.54
46007;BME280;31738;50.188;8.524;2023-12-20T08:10:33;98784.34;;;5.56;94.77
46007;BME280;31738;50.188;8.524;2023-12-20T08:12:58;98779.03;;;5.56;94.46
46007;BME280;31738;50.188;8.524;2023-12-20T08:15:24;98785.94;;;5.57;94.54
46007;BME280;31738;50.188;8.524;2023-12-20T08:17:49;98787.81;;;5.56;94.85
46007;BME280;31738;50.188;8.524;2023-12-20T08:20:18;98791.75;;;5.54;94.78
46007;BME280;31738;50.188;8.524;2023-12-20T08:22:43;98796.28;;;5.53;94.37
46007;BME280;31738;50.188;8.524;2023-12-20T08:25:09;98783.22;;;5.52;94.92
46007;BME280;31738;50.188;8.524;2023-12-20T08:27:40;98788.53;;;5.52;94.35
46007;BME280;31738;50.188;8.524;2023-12-20T08:30:08;98786.19;;;5.55;94.86
46007;BME280;31738;50.188;8.524;2023-12-20T08:32:34;98794.50;;;5.59;94.77
46007;BME280;31738;50.188;8.524;2023-12-20T08:34:59;98794.03;;;5.62;94.60
46007;BME280;31738;50.188;8.524;2023-12-20T08:37:25;98796.22;;;5.65;94.63
46007;BME280;31738;50.188;8.524;2023-12-20T08:39:50;98796.78;;;5.67;94.65
46007;BME280;31738;50.188;8.524;2023-12-20T08:42:16;98801.03;;;5.68;94.46
46007;BME280;31738;50.188;8.524;2023-12-20T08:44:41;98789.38;;;5.69;94.63
46007;BME280;31738;50.188;8.524;2023-12-20T08:47:07;98788.56;;;5.68;95.04
46007;BME280;31738;50.188;8.524;2023-12-20T08:49:32;98787.84;;;5.73;94.48
46007;BME280;31738;50.188;8.524;2023-12-20T08:51:58;98785.50;;;5.76;94.83
46007;BME280;31738;50.188;8.524;2023-12-20T08:54:23;98782.13;;;5.81;94.44
46007;BME280;31738;50.188;8.524;2023-12-20T08:56:49;98784.41;;;5.89;94.41
46007;BME280;31738;50.188;8.524;2023-12-20T08:59:15;98782.97;;;5.98;94.66
46007;BME280;31738;50.188;8.524;2023-12-20T09:01:40;98774.31;;;6.07;94.71
46007;BME280;31738;50.188;8.524;2023-12-20T09:04:06;98784.81;;;6.14;94.53
46007;BME280;31738;50.188;8.524;2023-12-20T09:06:32;98778.75;;;6.18;94.33
46007;BME280;31738;50.188;8.524;2023-12-20T09:08:57;98783.59;;;6.21;94.66
46007;BME280;31738;50.188;8.524;2023-12-20T09:11:23;98782.75;;;6.21;94.44
46007;BME280;31738;50.188;8.524;2023-12-20T09:13:48;98787.06;;;6.22;94.56
46007;BME280;31738;50.188;8.524;2023-12-20T09:16:14;98776.16;;;6.23;94.44
46007;BME280;31738;50.188;8.524;2023-12-20T09:18:41;98768.75;;;6.25;94.46
46007;BME280;31738;50.188;8.524;2023-12-20T09:21:07;98770.69;;;6.30;94.72
46007;BME280;31738;50.188;8.524;2023-12-20T09:23:32;98771.53;;;6.35;94.75
46007;BME280;31738;50.188;8.524;2023-12-20T09:25:58;98772.97;;;6.43;94.62
46007;BME280;31738;50.188;8.524;2023-12-20T09:28:23;98770.97;;;6.50;94.45
46007;BME280;31738;50.188;8.524;2023-12-20T09:30:48;98768.84;;;6.52;94.06
46007;BME280;31738;50.188;8.524;2023-12-20T09:33:14;98770.47;;;6.53;94.54
46007;BME280;31738;50.188;8.524;2023-12-20T09:35:39;98763.59;;;6.57;94.78
46007;BME280;31738;50.188;8.524;2023-12-20T09:38:05;98771.06;;;6.60;94.46
46007;BME280;31738;50.188;8.524;2023-12-20T09:40:32;98778.81;;;6.61;94.35
46007;BME280;31738;50.188;8.524;2023-12-20T09:45:27;98781.25;;;6.63;94.51
46007;BME280;31738;50.188;8.524;2023-12-20T09:47:53;98783.41;;;6.66;94.23
46007;BME280;31738;50.188;8.524;2023-12-20T09:50:21;98793.59;;;6.69;94.13
46007;BME280;31738;50.188;8.524;2023-12-20T09:52:50;98792.28;;;6.71;94.04
46007;BME280;31738;50.188;8.524;2023-12-20T09:55:20;98789.94;;;6.75;94.21
46007;BME280;31738;50.188;8.524;2023-12-20T09:57:49;98793.16;;;6.77;93.87
46007;BME280;31738;50.188;8.524;2023-12-20T10:00:15;98783.59;;;6.81;94.21
46007;BME280;31738;50.188;8.524;2023-12-20T10:02:45;98785.78;;;6.84;93.78
46007;BME280;31738;50.188;8.524;2023-12-20T10:05:16;98782.31;;;6.83;94.09
46007;BME280;31738;50.188;8.524;2023-12-20T10:07:45;98781.88;;;6.91;93.87
46007;BME280;31738;50.188;8.524;2023-12-20T10:10:13;98783.03;;;7.00;93.83
46007;BME280;31738;50.188;8.524;2023-12-20T10:12:38;98787.91;;;7.04;93.57
46007;BME280;31738;50.188;8.524;2023-12-20T10:15:05;98789.81;;;7.08;93.80
46007;BME280;31738;50.188;8.524;2023-12-20T10:17:31;98781.84;;;7.13;93.04
46007;BME280;31738;50.188;8.524;2023-12-20T10:19:57;98783.00;;;7.17;93.46
46007;BME280;31738;50.188;8.524;2023-12-20T10:22:23;98770.75;;;7.21;93.32
46007;BME280;31738;50.188;8.524;2023-12-20T10:24:49;98771.59;;;7.27;93.22
46007;BME280;31738;50.188;8.524;2023-12-20T10:27:17;98762.56;;;7.28;93.00
46007;BME280;31738;50.188;8.524;2023-12-20T10:29:44;98749.47;;;7.26;92.60
46007;BME280;31738;50.188;8.524;2023-12-20T10:32:22;98749.47;;;7.26;92.75
46007;BME280;31738;50.188;8.524;2023-12-20T10:34:48;98744.63;;;7.23;92.41
46007;BME280;31738;50.188;8.524;2023-12-20T10:37:13;98742.50;;;7.25;92.16
46007;BME280;31738;50.188;8.524;2023-12-20T10:39:40;98745.16;;;7.25;92.02
46007;BME280;31738;50.188;8.524;2023-12-20T10:42:07;98744.63;;;7.23;91.78
46007;BME280;31738;50.188;8.524;2023-12-20T10:44:33;98749.97;;;7.23;92.01
46007;BME280;31738;50.188;8.524;2023-12-20T10:46:59;98746.75;;;7.21;91.94
46007;BME280;31738;50.188;8.524;2023-12-20T10:49:26;98739.31;;;7.23;91.94
46007;BME280;31738;50.188;8.524;2023-12-20T10:51:54;98737.94;;;7.21;91.45
46007;BME280;31738;50.188;8.524;2023-12-20T10:54:19;98734.47;;;7.20;91.40
46007;BME280;31738;50.188;8.524;2023-12-20T10:56:45;98732.34;;;7.22;91.22
46007;BME280;31738;50.188;8.524;2023-12-20T10:59:11;98742.50;;;7.25;91.32
46007;BME280;31738;50.188;8.524;2023-12-20T11:01:38;98734.56;;;7.30;90.44
46007;BME280;31738;50.188;8.524;2023-12-20T11:04:10;98733.56;;;7.36;90.59
46007;BME280;31738;50.188;8.524;2023-12-20T11:07:07;98738.69;;;7.43;90.71
46007;BME280;31738;50.188;8.524;2023-12-20T11:09:36;98734.16;;;7.43;90.46
46007;BME280;31738;50.188;8.524;2023-12-20T11:12:18;98736.06;;;7.48;89.71
46007;BME280;31738;50.188;8.524;2023-12-20T11:14:50;98743.00;;;7.49;89.39
46007;BME280;31738;50.188;8.524;2023-12-20T11:17:16;98738.78;;;7.53;89.44
46007;BME280;31738;50.188;8.524;2023-12-20T11:22:29;98739.69;;;7.63;88.71
46007;BME280;31738;50.188;8.524;2023-12-20T11:25:07;98752.03;;;7.69;88.28
46007;BME280;31738;50.188;8.524;2023-12-20T11:27:33;98750.44;;;7.73;88.83
46007;BME280;31738;50.188;8.524;2023-12-20T11:29:59;98750.22;;;7.80;87.70
46007;BME280;31738;50.188;8.524;2023-12-20T11:35:01;98764.50;;;7.95;87.76
46007;BME280;31738;50.188;8.524;2023-12-20T11:37:45;98776.28;;;7.99;86.64
46007;BME280;31738;50.188;8.524;2023-12-20T11:40:15;98756.25;;;7.97;87.47
46007;BME280;31738;50.188;8.524;2023-12-20T11:42:43;98756.00;;;8.03;86.93
46007;BME280;31738;50.188;8.524;2023-12-20T11:45:09;98761.41;;;8.08;87.13
46007;BME280;31738;50.188;8.524;2023-12-20T11:47:35;98753.69;;;8.12;86.13
46007;BME280;31738;50.188;8.524;2023-12-20T11:50:01;98764.66;;;8.15;86.26
46007;BME280;31738;50.188;8.524;2023-12-20T11:52:29;98764.16;;;8.18;86.01
46007;BME280;31738;50.188;8.524;2023-12-20T11:54:55;98760.97;;;8.21;85.70
46007;BME280;31738;50.188;8.524;2023-12-20T11:57:20;98767.09;;;8.22;85.20
46007;BME280;31738;50.188;8.524;2023-12-20T11:59:46;98765.28;;;8.22;85.02
46007;BME280;31738;50.188;8.524;2023-12-20T12:02:12;98758.84;;;8.23;85.01
46007;BME280;31738;50.188;8.524;2023-12-20T12:04:37;98752.47;;;8.24;85.10
46007;BME280;31738;50.188;8.524;2023-12-20T12:07:03;98747.41;;;8.28;84.50
46007;BME280;31738;50.188;8.524;2023-12-20T12:09:31;98758.38;;;8.31;84.22
46007;BME280;31738;50.188;8.524;2023-12-20T12:12:09;98750.41;;;8.36;84.56
46007;BME280;31738;50.188;8.524;2023-12-20T12:14:50;98745.31;;;8.35;84.32
46007;BME280;31738;50.188;8.524;2023-12-20T12:17:23;98743.16;;;8.37;84.11
46007;BME280;31738;50.188;8.524;2023-12-20T12:20:05;98750.97;;;8.43;84.43
46007;BME280;31738;50.188;8.524;2023-12-20T12:22:31;98754.75;;;8.47;84.09
46007;BME280;31738;50.188;8.524;2023-12-20T12:25:11;98753.97;;;8.52;83.54
46007;BME280;31738;50.188;8.524;2023-12-20T12:27:58;98757.97;;;8.54;83.44
46007;BME280;31738;50.188;8.524;2023-12-20T12:30:24;98768.16;;;8.57;83.28
46007;BME280;31738;50.188;8.524;2023-12-20T12:32:55;98775.41;;;8.62;83.14
46007;BME280;31738;50.188;8.524;2023-12-20T12:35:40;98762.03;;;8.62;82.93
46007;BME280;31738;50.188;8.524;2023-12-20T12:38:07;98759.63;;;8.60;82.85
46007;BME280;31738;50.188;8.524;2023-12-20T12:40:38;98779.13;;;8.61;82.57
46007;BME280;31738;50.188;8.524;2023-12-20T12:43:21;98781.25;;;8.59;82.60
46007;BME280;31738;50.188;8.524;2023-12-20T12:46:12;98772.16;;;8.60;82.04
46007;BME280;31738;50.188;8.524;2023-12-20T12:48:41;98770.78;;;8.52;82.60
46007;BME280;31738;50.188;8.524;2023-12-20T12:51:23;98774.03;;;8.54;82.65
46007;BME280;31738;50.188;8.524;2023-12-20T12:53:54;98758.78;;;8.55;82.81
46007;BME280;31738;50.188;8.524;2023-12-20T12:56:31;98753.72;;;8.58;82.46
46007;BME280;31738;50.188;8.524;2023-12-20T12:59:03;98758.28;;;8.58;82.50
46007;BME280;31738;50.188;8.524;2023-12-20T13:01:47;98761.22;;;8.56;82.77
46007;BME280;31738;50.188;8.524;2023-12-20T13:04:33;98752.34;;;8.51;82.91
46007;BME280;31738;50.188;8.524;2023-12-20T13:07:00;98752.06;;;8.52;82.99
46007;BME280;31738;50.188;8.524;2023-12-20T13:09:40;98739.81;;;8.56;82.25
46007;BME280;31738;50.188;8.524;2023-12-20T13:14:51;98731.25;;;8.54;82.05
46007;BME280;31738;50.188;8.524;2023-12-20T13:17:17;98728.06;;;8.57;82.22
46007;BME280;31738;50.188;8.524;2023-12-20T13:19:43;98722.72;;;8.57;82.23